createdAt,value
2022-07-31T00:00:30.220Z,66.20
2022-07-31T00:02:59.257Z,66.40
2022-07-31T00:05:27.951Z,66.20
2022-07-31T00:07:56.250Z,66.30
2022-07-31T00:10:25.132Z,66.40
2022-07-31T00:12:53.933Z,66.70
2022-07-31T00:15:22.520Z,66.60
2022-07-31T00:17:52.706Z,66.80
2022-07-31T00:20:21.797Z,67.60
2022-07-31T00:22:50.624Z,67.10
2022-07-31T00:25:20.100Z,67.40
2022-07-31T00:27:48.537Z,67.50
2022-07-31T00:30:17.589Z,67.00
2022-07-31T00:32:46.546Z,66.90
2022-07-31T00:35:18.548Z,67.30
2022-07-31T00:37:46.970Z,67.70
2022-07-31T00:40:18.225Z,68.20
2022-07-31T00:42:46.537Z,67.90
2022-07-31T00:45:15.722Z,66.70
2022-07-31T00:47:44.533Z,66.30
2022-07-31T00:50:13.729Z,65.80
2022-07-31T00:52:43.336Z,67.40
2022-07-31T00:55:11.808Z,66.40
2022-07-31T00:57:40.070Z,67.30
2022-07-31T01:00:10.441Z,65.60
2022-07-31T01:02:46.453Z,66.90
2022-07-31T01:05:15.719Z,66.80
2022-07-31T01:07:45.601Z,67.10
2022-07-31T01:10:20.785Z,66.50
2022-07-31T01:12:56.449Z,65.80
2022-07-31T01:15:26.522Z,66.50
2022-07-31T01:17:56.456Z,66.30
2022-07-31T01:20:25.753Z,65.70
2022-07-31T01:23:19.913Z,66.30
2022-07-31T01:26:08.269Z,65.70
2022-07-31T01:28:59.887Z,66.10
2022-07-31T01:31:35.899Z,65.70
2022-07-31T01:34:10.731Z,66.30
2022-07-31T01:36:46.804Z,66.50
2022-07-31T01:39:15.267Z,66.20
2022-07-31T01:41:47.708Z,66.30
2022-07-31T01:44:19.266Z,66.30
2022-07-31T01:46:48.959Z,66.60
2022-07-31T01:49:19.412Z,66.40
2022-07-31T01:51:50.674Z,66.40
2022-07-31T01:54:21.912Z,66.30
2022-07-31T01:56:51.281Z,66.50
2022-07-31T01:59:22.913Z,66.50
2022-07-31T02:01:54.200Z,66.70
2022-07-31T02:04:23.902Z,66.70
2022-07-31T02:06:53.526Z,66.80
2022-07-31T02:09:23.629Z,66.60
2022-07-31T02:12:04.222Z,66.60
2022-07-31T02:14:41.210Z,66.80
2022-07-31T02:17:10.824Z,66.80
2022-07-31T02:19:59.732Z,66.90
2022-07-31T02:22:29.476Z,67.30
2022-07-31T02:24:57.865Z,67.20
2022-07-31T02:27:56.904Z,67.10
2022-07-31T02:30:18.722Z,66.60
2022-07-31T02:32:48.823Z,66.60
2022-07-31T02:35:18.909Z,66.80
2022-07-31T02:37:52.969Z,67.10
2022-07-31T02:40:22.473Z,67.30
2022-07-31T02:42:52.481Z,67.60
2022-07-31T02:45:23.507Z,67.60
2022-07-31T02:47:51.961Z,67.90
2022-07-31T02:50:20.629Z,68.50
2022-07-31T02:52:49.220Z,68.30
2022-07-31T02:55:18.929Z,68.70
2022-07-31T02:57:48.226Z,68.80
2022-07-31T03:00:22.977Z,68.90
2022-07-31T03:02:53.780Z,69.40
2022-07-31T03:05:22.551Z,69.60
2022-07-31T03:07:51.249Z,70.00
2022-07-31T03:10:19.917Z,69.90
2022-07-31T03:12:52.292Z,70.30
2022-07-31T03:15:24.745Z,70.60
2022-07-31T03:17:55.821Z,70.40
2022-07-31T03:20:24.708Z,70.70
2022-07-31T03:22:53.198Z,71.00
2022-07-31T03:25:22.295Z,70.90
2022-07-31T03:27:52.441Z,70.60
2022-07-31T03:30:26.012Z,70.70
2022-07-31T03:32:57.625Z,70.90
2022-07-31T03:35:27.136Z,71.00
2022-07-31T03:37:55.502Z,71.20
2022-07-31T03:40:23.904Z,71.30
2022-07-31T03:42:54.065Z,71.10
2022-07-31T03:45:22.879Z,71.30
2022-07-31T03:47:51.474Z,71.80
2022-07-31T03:50:22.550Z,71.90
2022-07-31T03:52:50.802Z,72.10
2022-07-31T03:55:19.209Z,72.30
2022-07-31T03:57:48.162Z,72.30
2022-07-31T04:00:20.560Z,72.40
2022-07-31T04:02:49.069Z,72.00
2022-07-31T04:05:17.524Z,72.50
2022-07-31T04:07:47.162Z,72.60
2022-07-31T04:10:15.485Z,72.40
2022-07-31T04:12:43.800Z,72.50
2022-07-31T04:15:12.429Z,72.70
2022-07-31T04:17:40.714Z,72.90
2022-07-31T04:20:11.311Z,72.80
2022-07-31T04:22:39.913Z,72.90
2022-07-31T04:25:10.972Z,73.10
2022-07-31T04:27:48.026Z,73.30
2022-07-31T04:30:17.648Z,73.40
2022-07-31T04:32:46.034Z,73.30
2022-07-31T04:35:14.772Z,73.20
2022-07-31T04:37:48.150Z,73.40
2022-07-31T04:40:18.339Z,73.80
2022-07-31T04:42:46.648Z,73.60
2022-07-31T04:45:14.919Z,73.90
2022-07-31T04:47:43.205Z,74.00
2022-07-31T04:50:12.060Z,73.90
2022-07-31T04:52:40.463Z,73.80
2022-07-31T04:55:09.794Z,73.90
2022-07-31T04:57:39.496Z,74.00
2022-07-31T05:00:10.407Z,73.90
2022-07-31T05:02:38.888Z,74.10
2022-07-31T05:05:08.224Z,73.90
2022-07-31T05:07:36.583Z,74.00
2022-07-31T05:10:06.114Z,74.00
2022-07-31T05:12:34.343Z,74.50
2022-07-31T05:15:04.231Z,74.00
2022-07-31T05:17:32.514Z,74.20
2022-07-31T05:20:00.836Z,73.90
2022-07-31T05:22:29.078Z,73.70
2022-07-31T05:24:57.364Z,74.00
2022-07-31T05:27:25.634Z,73.80
2022-07-31T05:30:00.220Z,73.30
2022-07-31T05:32:29.902Z,73.30
2022-07-31T05:34:58.127Z,73.50
2022-07-31T05:37:26.403Z,73.40
2022-07-31T05:39:54.670Z,73.20
2022-07-31T05:42:22.933Z,73.10
2022-07-31T05:44:51.156Z,73.40
2022-07-31T05:47:19.510Z,73.20
2022-07-31T05:49:49.158Z,73.10
2022-07-31T05:52:18.813Z,73.40
2022-07-31T05:54:47.131Z,73.50
2022-07-31T05:57:32.987Z,73.40
2022-07-31T06:00:03.877Z,73.50
2022-07-31T06:02:32.569Z,73.80
2022-07-31T06:05:02.725Z,74.00
2022-07-31T06:07:30.952Z,73.80
2022-07-31T06:09:59.320Z,74.40
2022-07-31T06:12:27.705Z,75.00
2022-07-31T06:14:56.000Z,75.00
2022-07-31T06:17:24.254Z,74.90
2022-07-31T06:20:11.846Z,75.60
2022-07-31T06:22:41.417Z,76.30
2022-07-31T06:25:11.106Z,76.40
2022-07-31T06:27:42.205Z,77.00
2022-07-31T06:30:12.660Z,77.20
2022-07-31T06:32:41.056Z,77.20
2022-07-31T06:35:11.403Z,77.20
2022-07-31T06:37:40.063Z,77.60
2022-07-31T06:40:09.690Z,78.00
2022-07-31T06:42:38.329Z,78.00
2022-07-31T06:45:08.078Z,78.90
2022-07-31T06:47:36.390Z,79.80
2022-07-31T06:50:05.613Z,80.20
2022-07-31T06:52:35.559Z,80.50
2022-07-31T06:55:03.868Z,80.60
2022-07-31T06:57:32.113Z,80.20
2022-07-31T07:00:03.235Z,81.00
2022-07-31T07:02:33.868Z,81.30
2022-07-31T07:05:05.805Z,81.50
2022-07-31T07:07:38.537Z,81.10
2022-07-31T07:10:07.918Z,81.10
2022-07-31T07:12:36.221Z,82.00
2022-07-31T07:15:04.940Z,81.60
2022-07-31T07:17:33.225Z,81.20
2022-07-31T07:20:01.530Z,81.00
2022-07-31T07:22:31.556Z,81.10
2022-07-31T07:25:02.124Z,80.90
2022-07-31T07:27:30.538Z,81.70
2022-07-31T07:29:59.033Z,81.10
2022-07-31T07:32:27.428Z,80.90
2022-07-31T07:34:59.967Z,80.90
2022-07-31T07:37:30.077Z,80.70
2022-07-31T07:40:03.461Z,80.50
2022-07-31T07:42:33.916Z,80.60
2022-07-31T07:45:06.766Z,80.60
2022-07-31T07:47:53.629Z,80.90
2022-07-31T07:50:27.157Z,80.40
2022-07-31T07:52:58.116Z,79.90
2022-07-31T07:55:27.431Z,80.20
2022-07-31T07:58:11.496Z,80.10
2022-07-31T08:00:41.185Z,80.00
2022-07-31T08:03:48.968Z,80.10
2022-07-31T08:05:57.744Z,79.90
2022-07-31T08:08:26.045Z,79.70
2022-07-31T08:10:54.581Z,79.90
2022-07-31T08:13:24.611Z,79.20
2022-07-31T08:15:52.978Z,79.40
2022-07-31T08:18:21.214Z,79.30
2022-07-31T08:20:49.508Z,79.30
2022-07-31T08:23:18.326Z,79.00
2022-07-31T08:25:46.629Z,78.30
2022-07-31T08:28:19.565Z,78.80
2022-07-31T08:30:54.006Z,78.20
2022-07-31T08:33:22.336Z,77.70
2022-07-31T08:35:51.068Z,77.30
2022-07-31T08:38:19.785Z,77.90
2022-07-31T08:40:48.600Z,76.90
2022-07-31T08:44:00.300Z,76.70
2022-07-31T08:46:07.988Z,75.70
2022-07-31T08:48:42.043Z,76.10
2022-07-31T08:51:13.794Z,75.70
2022-07-31T08:53:45.265Z,76.90
2022-07-31T08:56:14.289Z,75.90
2022-07-31T08:58:42.657Z,76.10
2022-07-31T09:01:14.935Z,75.90
2022-07-31T09:03:43.692Z,75.10
2022-07-31T09:06:12.137Z,75.20
2022-07-31T09:08:40.381Z,74.70
2022-07-31T09:11:15.068Z,75.30
2022-07-31T09:14:01.747Z,74.50
2022-07-31T09:16:33.114Z,74.70
2022-07-31T09:19:03.833Z,74.90
2022-07-31T09:21:52.750Z,74.20
2022-07-31T09:24:30.957Z,72.80
2022-07-31T09:27:08.006Z,72.40
2022-07-31T09:29:38.594Z,72.00
2022-07-31T09:32:13.594Z,71.70
2022-07-31T09:34:42.668Z,72.70
2022-07-31T09:37:13.301Z,73.10
2022-07-31T09:39:51.917Z,72.80
2022-07-31T09:42:22.055Z,72.70
2022-07-31T09:44:52.100Z,72.90
2022-07-31T09:47:29.026Z,72.40
2022-07-31T09:49:59.858Z,72.30
2022-07-31T09:52:29.957Z,72.40
2022-07-31T09:55:15.848Z,72.80
2022-07-31T09:57:54.285Z,72.10
2022-07-31T10:00:25.121Z,71.20
2022-07-31T10:02:56.895Z,71.60
2022-07-31T10:05:26.708Z,70.70
2022-07-31T10:07:58.043Z,71.10
2022-07-31T10:10:27.209Z,71.50
2022-07-31T10:12:57.487Z,70.90
2022-07-31T10:15:27.756Z,70.00
2022-07-31T10:17:57.679Z,70.90
2022-07-31T10:20:28.077Z,71.00
2022-07-31T10:23:03.052Z,70.10
2022-07-31T10:25:31.806Z,70.80
2022-07-31T10:28:00.043Z,69.80
2022-07-31T10:30:29.019Z,69.80
2022-07-31T10:32:59.638Z,69.60
2022-07-31T10:35:28.421Z,69.40
2022-07-31T10:38:05.422Z,69.30
2022-07-31T10:40:43.127Z,70.00
2022-07-31T10:43:20.845Z,68.70
2022-07-31T10:45:50.714Z,69.00
2022-07-31T10:48:21.190Z,68.30
2022-07-31T10:51:02.606Z,68.90
2022-07-31T10:53:50.647Z,68.80
2022-07-31T10:56:19.513Z,68.80
2022-07-31T10:58:52.322Z,68.00
2022-07-31T11:01:21.061Z,66.50
2022-07-31T11:03:54.997Z,66.70
2022-07-31T11:09:07.119Z,66.90
2022-07-31T11:11:37.862Z,67.30
2022-07-31T11:14:05.955Z,67.10
2022-07-31T11:16:34.372Z,66.00
2022-07-31T11:19:06.259Z,65.70
2022-07-31T11:21:39.671Z,65.10
2022-07-31T11:24:18.581Z,64.10
2022-07-31T11:26:51.600Z,63.30
2022-07-31T11:30:00.740Z,63.10
2022-07-31T11:32:22.917Z,63.70
2022-07-31T11:34:57.648Z,64.60
2022-07-31T11:37:43.329Z,64.40
2022-07-31T11:40:15.392Z,64.00
2022-07-31T11:42:46.247Z,64.50
2022-07-31T11:45:16.747Z,64.70
2022-07-31T11:48:12.225Z,64.00
2022-07-31T11:50:42.648Z,65.00
2022-07-31T11:53:11.010Z,65.90
2022-07-31T11:55:48.136Z,65.20
2022-07-31T11:58:17.648Z,64.40
2022-07-31T12:00:54.078Z,64.20
2022-07-31T12:03:24.548Z,64.40
2022-07-31T12:05:55.150Z,64.00
2022-07-31T12:08:25.266Z,64.40
2022-07-31T12:10:55.170Z,62.80
2022-07-31T12:13:25.673Z,63.00
2022-07-31T12:16:04.225Z,62.60
2022-07-31T12:18:47.844Z,62.50
2022-07-31T12:21:18.734Z,62.80
2022-07-31T12:23:49.353Z,62.80
2022-07-31T12:26:25.158Z,62.00
2022-07-31T12:29:01.291Z,62.60
2022-07-31T12:31:32.500Z,62.40
2022-07-31T12:34:00.860Z,62.00
2022-07-31T12:36:30.537Z,61.50
2022-07-31T12:39:03.353Z,61.70
2022-07-31T12:41:32.513Z,61.60
2022-07-31T12:44:14.536Z,59.90
2022-07-31T12:46:43.798Z,60.10
2022-07-31T12:49:12.177Z,59.90
2022-07-31T12:51:45.254Z,59.70
2022-07-31T12:54:16.139Z,60.10
2022-07-31T12:56:46.396Z,59.90
2022-07-31T12:59:15.356Z,60.20
2022-07-31T13:01:43.747Z,59.70
2022-07-31T13:04:18.917Z,59.00
2022-07-31T13:06:51.827Z,59.40
2022-07-31T13:09:20.962Z,58.80
2022-07-31T13:11:52.240Z,58.40
2022-07-31T13:14:24.973Z,59.00
2022-07-31T13:16:55.087Z,58.30
2022-07-31T13:19:23.560Z,58.60
2022-07-31T13:21:56.932Z,59.40
2022-07-31T13:24:26.254Z,59.50
2022-07-31T13:26:54.631Z,59.40
2022-07-31T13:29:22.928Z,59.50
2022-07-31T13:31:51.388Z,60.30
2022-07-31T13:34:19.658Z,59.80
2022-07-31T13:36:47.920Z,60.60
2022-07-31T13:39:17.626Z,60.70
2022-07-31T13:41:45.988Z,60.60
2022-07-31T13:44:14.304Z,61.10
2022-07-31T13:46:42.763Z,61.80
2022-07-31T13:49:11.645Z,60.50
2022-07-31T13:51:40.300Z,59.50
2022-07-31T13:54:09.134Z,60.10
2022-07-31T13:56:43.349Z,60.50
2022-07-31T13:59:13.830Z,57.90
2022-07-31T14:02:03.363Z,57.70
2022-07-31T14:04:38.104Z,57.40
2022-07-31T14:07:08.559Z,57.80
2022-07-31T14:09:37.697Z,57.30
2022-07-31T14:12:08.889Z,58.50
2022-07-31T14:14:37.960Z,57.40
2022-07-31T14:17:06.247Z,59.10
2022-07-31T14:19:43.999Z,59.00
2022-07-31T14:22:14.349Z,59.10
2022-07-31T14:24:49.356Z,58.70
2022-07-31T14:27:21.902Z,59.20
2022-07-31T14:29:50.547Z,59.60
2022-07-31T14:32:19.471Z,59.10
2022-07-31T14:34:47.909Z,58.80
2022-07-31T14:37:16.246Z,60.00
2022-07-31T14:39:44.724Z,60.50
2022-07-31T14:42:13.318Z,59.80
2022-07-31T14:44:43.316Z,60.00
2022-07-31T14:47:12.645Z,60.80
2022-07-31T14:50:08.904Z,60.00
2022-07-31T14:52:30.229Z,60.90
2022-07-31T14:55:00.091Z,59.50
2022-07-31T14:57:28.718Z,58.10
2022-07-31T14:59:58.487Z,58.10
2022-07-31T15:02:27.186Z,58.10
2022-07-31T15:04:55.603Z,58.80
2022-07-31T15:07:45.789Z,58.70
2022-07-31T15:10:13.135Z,59.30
2022-07-31T15:12:41.873Z,59.60
2022-07-31T15:15:12.630Z,59.60
2022-07-31T15:17:40.964Z,58.70
2022-07-31T15:20:10.846Z,58.30
2022-07-31T15:22:39.151Z,59.10
2022-07-31T15:25:09.578Z,59.00
2022-07-31T15:27:37.883Z,58.80
2022-07-31T15:30:08.123Z,58.50
2022-07-31T15:32:40.595Z,57.80
2022-07-31T15:35:12.227Z,58.80
2022-07-31T15:37:44.035Z,58.40
2022-07-31T15:40:15.067Z,59.40
2022-07-31T15:42:45.805Z,59.90
2022-07-31T15:45:17.554Z,59.40
2022-07-31T15:47:48.784Z,58.90
2022-07-31T15:50:20.220Z,59.50
2022-07-31T15:52:48.624Z,60.70
2022-07-31T15:55:18.373Z,61.00
2022-07-31T15:57:46.762Z,60.70
2022-07-31T16:00:16.189Z,60.00
2022-07-31T16:02:46.485Z,59.40
2022-07-31T16:05:19.973Z,59.50
2022-07-31T16:08:32.330Z,59.10
2022-07-31T16:10:54.890Z,59.40
2022-07-31T16:13:24.015Z,59.70
2022-07-31T16:15:52.720Z,60.10
2022-07-31T16:18:22.455Z,61.00
2022-07-31T16:20:50.752Z,60.70
2022-07-31T16:23:19.054Z,60.30
2022-07-31T16:25:47.568Z,60.90
2022-07-31T16:28:15.891Z,60.60
2022-07-31T16:30:45.619Z,60.90
2022-07-31T16:33:14.099Z,61.00
2022-07-31T16:35:43.929Z,61.20
2022-07-31T16:38:12.284Z,61.00
2022-07-31T16:40:40.810Z,61.00
2022-07-31T16:43:50.091Z,61.10
2022-07-31T16:45:58.024Z,60.90
2022-07-31T16:48:26.499Z,60.60
2022-07-31T16:50:56.187Z,61.40
2022-07-31T16:54:10.936Z,61.10
2022-07-31T16:56:13.735Z,61.90
2022-07-31T16:58:43.678Z,61.70
2022-07-31T17:01:59.533Z,61.90
2022-07-31T17:04:03.693Z,61.50
2022-07-31T17:06:37.359Z,61.90
2022-07-31T17:09:17.446Z,62.20
2022-07-31T17:11:49.084Z,62.50
2022-07-31T17:14:17.963Z,62.90
2022-07-31T17:16:48.604Z,62.70
2022-07-31T17:19:41.620Z,63.00
2022-07-31T17:22:08.368Z,63.00
2022-07-31T17:24:40.992Z,63.50
2022-07-31T17:27:10.350Z,63.80
2022-07-31T17:29:39.474Z,63.90
2022-07-31T17:32:11.401Z,64.20
2022-07-31T17:34:40.213Z,64.50
2022-07-31T17:37:10.231Z,65.40
2022-07-31T17:39:38.720Z,66.40
2022-07-31T17:42:09.202Z,66.30
2022-07-31T17:44:37.643Z,69.90
2022-07-31T17:47:06.567Z,72.10
2022-07-31T17:49:35.616Z,75.60
2022-07-31T17:52:04.374Z,79.60
2022-07-31T17:54:34.270Z,81.60
2022-07-31T17:57:02.858Z,82.20
2022-07-31T17:59:31.889Z,82.30
2022-07-31T18:02:01.093Z,83.70
2022-07-31T18:04:30.419Z,83.30
2022-07-31T18:06:59.780Z,83.70
2022-07-31T18:09:29.400Z,83.50
2022-07-31T18:11:59.494Z,83.80
2022-07-31T18:14:27.940Z,84.10
2022-07-31T18:16:56.558Z,84.30
2022-07-31T18:19:24.887Z,84.30
2022-07-31T18:21:53.818Z,85.00
2022-07-31T18:24:23.092Z,85.00
2022-07-31T18:26:53.786Z,84.70
2022-07-31T18:29:23.786Z,85.40
2022-07-31T18:31:52.017Z,85.40
2022-07-31T18:34:20.312Z,85.60
2022-07-31T18:36:54.388Z,85.30
2022-07-31T18:39:24.035Z,85.90
2022-07-31T18:41:52.571Z,85.80
2022-07-31T18:44:22.497Z,86.00
2022-07-31T18:46:51.109Z,85.80
2022-07-31T18:51:00.416Z,85.80
2022-07-31T18:52:09.175Z,85.60
2022-07-31T18:54:38.136Z,85.60
2022-07-31T18:57:07.819Z,86.00
2022-07-31T18:59:38.302Z,86.00
2022-07-31T19:02:08.601Z,86.40
2022-07-31T19:04:39.991Z,86.60
2022-07-31T19:07:08.729Z,86.30
2022-07-31T19:09:37.406Z,86.10
2022-07-31T19:12:08.590Z,86.10
2022-07-31T19:14:38.572Z,86.10
2022-07-31T19:17:08.652Z,86.00
2022-07-31T19:19:54.190Z,86.50
2022-07-31T19:22:23.834Z,86.00
2022-07-31T19:24:52.217Z,86.00
2022-07-31T19:27:21.900Z,86.70
2022-07-31T19:30:13.865Z,86.10
2022-07-31T19:32:42.529Z,86.40
2022-07-31T19:35:11.098Z,86.50
2022-07-31T19:37:39.404Z,86.20
2022-07-31T19:40:09.121Z,86.40
2022-07-31T19:42:37.507Z,86.60
2022-07-31T19:45:06.960Z,86.50
2022-07-31T19:47:37.924Z,86.60
2022-07-31T19:50:07.497Z,86.40
2022-07-31T19:52:35.737Z,86.50
2022-07-31T19:55:04.168Z,86.80
2022-07-31T19:57:32.511Z,86.60
2022-07-31T20:00:00.823Z,86.90
2022-07-31T20:02:29.135Z,86.80
2022-07-31T20:05:00.112Z,87.20
2022-07-31T20:07:32.778Z,86.50
2022-07-31T20:10:01.912Z,86.80
2022-07-31T20:12:30.266Z,87.20
2022-07-31T20:14:58.725Z,86.90
2022-07-31T20:17:27.418Z,86.90
2022-07-31T20:20:15.094Z,86.80
2022-07-31T20:22:45.609Z,86.40
2022-07-31T20:25:20.101Z,86.00
2022-07-31T20:27:49.723Z,86.10
2022-07-31T20:30:21.920Z,86.40
2022-07-31T20:32:50.629Z,86.40
2022-07-31T20:35:32.870Z,86.70
2022-07-31T20:38:11.709Z,87.00
2022-07-31T20:40:52.730Z,87.00
2022-07-31T20:43:22.731Z,86.90
2022-07-31T20:45:51.451Z,87.40
2022-07-31T20:48:21.885Z,87.00
2022-07-31T20:50:50.366Z,87.10
2022-07-31T20:53:21.024Z,87.40
2022-07-31T20:55:50.569Z,87.60
2022-07-31T20:58:19.712Z,87.60
2022-07-31T21:00:48.584Z,87.10
2022-07-31T21:03:17.901Z,86.70
2022-07-31T21:05:47.398Z,87.40
2022-07-31T21:08:16.068Z,87.40
2022-07-31T21:10:46.116Z,87.40
2022-07-31T21:13:14.630Z,86.90
2022-07-31T21:15:45.288Z,87.20
2022-07-31T21:18:14.296Z,87.10
2022-07-31T21:20:52.273Z,87.30
2022-07-31T21:23:23.155Z,87.50
2022-07-31T21:25:53.847Z,87.10
2022-07-31T21:28:23.543Z,86.90
2022-07-31T21:30:53.707Z,87.10
2022-07-31T21:33:23.793Z,87.10
2022-07-31T21:35:52.634Z,87.10
2022-07-31T21:38:21.967Z,87.40
2022-07-31T21:40:53.546Z,87.40
2022-07-31T21:43:23.084Z,87.70
2022-07-31T21:45:57.391Z,88.00
2022-07-31T21:48:32.333Z,88.20
2022-07-31T21:51:01.825Z,88.70
2022-07-31T21:53:30.335Z,88.70
2022-07-31T21:56:03.753Z,88.60
2022-07-31T21:58:32.026Z,88.50
2022-07-31T22:01:00.421Z,88.60
2022-07-31T22:03:29.072Z,88.80
2022-07-31T22:06:14.950Z,89.00
2022-07-31T22:08:43.472Z,88.90
2022-07-31T22:11:13.387Z,88.90
2022-07-31T22:13:41.793Z,89.00
2022-07-31T22:16:10.434Z,88.90
2022-07-31T22:18:39.512Z,88.90
2022-07-31T22:21:09.789Z,88.90
2022-07-31T22:23:38.774Z,88.10
2022-07-31T22:26:07.896Z,88.70
2022-07-31T22:28:37.950Z,88.50
2022-07-31T22:31:06.949Z,88.80
2022-07-31T22:33:35.930Z,88.80
2022-07-31T22:36:07.167Z,88.80
2022-07-31T22:38:37.979Z,88.70
2022-07-31T22:41:06.558Z,88.60
2022-07-31T22:44:10.878Z,88.30
2022-07-31T22:46:25.248Z,88.70
2022-07-31T22:48:55.472Z,88.70
2022-07-31T22:51:24.070Z,88.60
2022-07-31T22:53:52.347Z,88.20
2022-07-31T22:56:20.879Z,88.40
2022-07-31T22:58:49.224Z,88.60
2022-07-31T23:01:17.515Z,88.40
2022-07-31T23:03:47.210Z,88.50
2022-07-31T23:06:29.839Z,88.40
2022-07-31T23:09:01.697Z,88.20
2022-07-31T23:11:30.174Z,88.10
2022-07-31T23:13:58.577Z,88.20
2022-07-31T23:16:27.685Z,87.80
2022-07-31T23:18:57.875Z,88.20
2022-07-31T23:21:26.475Z,88.20
2022-07-31T23:23:55.268Z,88.20
2022-07-31T23:26:26.088Z,88.10
2022-07-31T23:28:56.331Z,88.20
2022-07-31T23:31:25.171Z,88.20
2022-07-31T23:33:54.289Z,88.00
2022-07-31T23:36:24.346Z,88.00
2022-07-31T23:38:52.839Z,87.80
2022-07-31T23:41:35.087Z,88.00
2022-07-31T23:44:04.775Z,88.00
2022-07-31T23:46:33.206Z,87.60
2022-07-31T23:49:02.675Z,87.70
2022-07-31T23:51:32.323Z,87.80
2022-07-31T23:54:00.639Z,88.00
2022-07-31T23:56:28.966Z,87.80
2022-07-31T23:58:57.264Z,88.10
